Time;durP1;ratioP1;P1;durP2;ratioP2;P2;SDS_P1;SDS_P2;PMS_P1;PMS_P2;Temp;Humidity;BMP_temperature;BMP_pressure;BME280_temperature;BME280_humidity;BME280_pressure;Samples;Min_cycle;Max_cycle;Signal;HPM_P1;HPM_P2
2023/06/04 00:01:28;;;;;;;7.03;6.43;;;11.70;99.90;;;;;;5000535;28;20502;-64
2023/06/04 00:03:56;;;;;;;6.37;5.83;;;11.70;99.90;;;;;;4996448;28;20903;-63
2023/06/04 00:06:25;;;;;;;5.90;5.43;;;11.60;99.90;;;;;;4999669;28;21035;-65
2023/06/04 00:08:53;;;;;;;6.10;5.50;;;11.60;99.90;;;;;;4999227;28;21020;-64
2023/06/04 00:11:21;;;;;;;5.60;5.13;;;11.60;99.90;;;;;;4997535;28;20575;-63
2023/06/04 00:13:49;;;;;;;6.50;5.40;;;11.60;99.90;;;;;;5000292;28;20480;-63
2023/06/04 00:16:18;;;;;;;5.80;5.20;;;11.60;99.90;;;;;;4998657;28;20496;-64
2023/06/04 00:18:46;;;;;;;8.00;4.97;;;11.50;99.90;;;;;;5000093;28;20469;-63
2023/06/04 00:21:14;;;;;;;5.03;4.53;;;11.50;99.90;;;;;;4996904;28;20522;-64
2023/06/04 00:23:43;;;;;;;4.57;4.17;;;11.40;99.90;;;;;;5001674;28;20599;-64
2023/06/04 00:26:11;;;;;;;4.73;4.33;;;11.40;99.90;;;;;;5001142;28;20484;-64
2023/06/04 00:28:46;;;;;;;4.90;4.40;;;11.40;99.90;;;;;;5001119;28;20505;-64
2023/06/04 00:31:15;;;;;;;5.07;4.47;;;11.40;99.90;;;;;;4998090;28;20593;-64
2023/06/04 00:33:45;;;;;;;4.53;4.13;;;11.40;99.90;;;;;;5001364;28;21025;-64
2023/06/04 00:36:13;;;;;;;5.30;4.80;;;11.30;99.90;;;;;;5000992;28;20476;-64
2023/06/04 00:38:41;;;;;;;4.87;4.37;;;11.30;99.90;;;;;;4998442;28;20524;-63
2023/06/04 00:41:09;;;;;;;4.30;3.90;;;11.20;99.90;;;;;;4993786;28;20994;-64
2023/06/04 00:43:37;;;;;;;5.03;4.60;;;11.10;99.90;;;;;;4998017;28;20586;-64
2023/06/04 00:46:06;;;;;;;4.33;4.00;;;11.10;99.90;;;;;;4996042;28;20581;-64
2023/06/04 00:48:36;;;;;;;4.40;4.10;;;11.00;99.90;;;;;;4992134;28;20990;-63
2023/06/04 00:51:06;;;;;;;4.97;4.57;;;11.00;99.90;;;;;;4992116;28;20484;-63
2023/06/04 00:53:34;;;;;;;4.10;3.60;;;11.00;99.90;;;;;;4998272;28;20514;-64
2023/06/04 00:56:05;;;;;;;4.50;4.10;;;11.00;99.90;;;;;;4995565;28;20552;-63
2023/06/04 00:58:38;;;;;;;3.90;3.60;;;11.00;99.90;;;;;;4997961;28;20479;-63
2023/06/04 01:01:13;;;;;;;4.00;3.70;;;10.90;99.90;;;;;;4996085;28;20512;-63
2023/06/04 01:03:46;;;;;;;5.30;4.80;;;10.90;99.90;;;;;;4996228;28;20498;-64
2023/06/04 01:06:22;;;;;;;6.17;4.20;;;10.80;99.90;;;;;;4992994;28;20477;-63
2023/06/04 01:08:54;;;;;;;5.17;4.30;;;10.80;99.90;;;;;;5001712;28;20916;-63
2023/06/04 01:11:32;;;;;;;5.13;4.63;;;10.70;99.90;;;;;;4998318;28;20511;-63
2023/06/04 01:14:00;;;;;;;5.50;4.80;;;10.70;99.90;;;;;;5001337;28;20486;-63
2023/06/04 01:16:32;;;;;;;4.70;4.33;;;10.70;99.90;;;;;;4999060;28;20483;-64
2023/06/04 01:19:03;;;;;;;4.67;4.27;;;10.60;99.90;;;;;;5001178;28;20969;-63
2023/06/04 01:21:38;;;;;;;5.43;4.93;;;10.60;99.90;;;;;;4999211;28;20568;-63
2023/06/04 01:24:08;;;;;;;5.10;4.70;;;10.60;99.90;;;;;;5001326;28;20541;-63
2023/06/04 01:26:37;;;;;;;5.20;4.80;;;10.50;99.90;;;;;;4999215;28;20504;-63
2023/06/04 01:29:05;;;;;;;5.50;5.00;;;10.50;99.90;;;;;;4996567;28;21027;-64
2023/06/04 01:31:33;;;;;;;5.60;5.10;;;10.50;99.90;;;;;;5005634;28;21041;-63
2023/06/04 01:34:02;;;;;;;5.53;4.83;;;10.50;99.90;;;;;;5019778;28;20461;-63
2023/06/04 01:36:29;;;;;;;6.20;5.60;;;10.50;99.90;;;;;;5001069;28;20465;-63
2023/06/04 01:39:00;;;;;;;5.30;4.80;;;10.40;99.90;;;;;;4995785;28;20477;-64
2023/06/04 01:41:28;;;;;;;4.93;4.53;;;10.40;99.90;;;;;;4996600;28;20492;-64
2023/06/04 01:43:56;;;;;;;5.53;5.03;;;10.40;99.90;;;;;;4999624;28;20568;-63
2023/06/04 01:46:24;;;;;;;5.47;5.00;;;10.30;99.90;;;;;;4995833;28;20874;-63
2023/06/04 01:48:52;;;;;;;6.13;5.63;;;10.30;99.90;;;;;;4994636;28;20477;-63
2023/06/04 01:51:20;;;;;;;5.70;4.90;;;10.20;99.90;;;;;;4996396;28;21099;-63
2023/06/04 01:53:48;;;;;;;5.57;5.07;;;10.20;99.90;;;;;;4998042;28;21052;-63
2023/06/04 01:56:17;;;;;;;5.80;5.30;;;10.20;99.90;;;;;;4997624;28;20603;-63
2023/06/04 01:58:45;;;;;;;5.57;5.07;;;10.20;99.90;;;;;;4999546;28;20900;-63
2023/06/04 02:01:16;;;;;;;4.87;4.47;;;10.20;99.90;;;;;;4995310;28;21026;-64
2023/06/04 02:03:45;;;;;;;6.47;5.10;;;10.10;99.90;;;;;;4994096;28;20945;-63
2023/06/04 02:06:13;;;;;;;5.67;5.10;;;10.10;99.90;;;;;;4997660;28;20468;-63
2023/06/04 02:08:42;;;;;;;5.30;4.80;;;10.00;99.90;;;;;;4999273;28;20556;-63
2023/06/04 02:11:10;;;;;;;6.80;5.10;;;10.00;99.90;;;;;;4993745;28;21013;-63
2023/06/04 02:13:39;;;;;;;5.47;4.97;;;10.00;99.90;;;;;;4995121;28;20524;-63
2023/06/04 02:16:07;;;;;;;5.50;5.00;;;10.00;99.90;;;;;;4995418;28;20483;-63
2023/06/04 02:18:35;;;;;;;5.33;4.90;;;10.00;99.90;;;;;;4997251;28;20480;-63
2023/06/04 02:21:04;;;;;;;4.90;4.50;;;9.90;99.90;;;;;;4998197;28;20518;-63
2023/06/04 02:23:32;;;;;;;5.30;4.80;;;9.90;99.90;;;;;;4998837;28;20488;-63
2023/06/04 02:26:00;;;;;;;5.10;4.70;;;9.90;99.90;;;;;;4993269;28;20472;-64
2023/06/04 02:28:28;;;;;;;5.20;4.80;;;9.90;99.90;;;;;;4995454;28;20556;-63
2023/06/04 02:30:57;;;;;;;6.33;5.67;;;9.90;99.90;;;;;;4997717;28;20524;-63
2023/06/04 02:33:25;;;;;;;5.20;4.80;;;9.90;99.90;;;;;;4999489;28;20503;-63
2023/06/04 02:35:53;;;;;;;5.03;4.53;;;9.80;99.90;;;;;;5003826;28;21054;-64
2023/06/04 02:38:21;;;;;;;4.80;4.40;;;9.80;99.90;;;;;;5000469;28;20552;-63
2023/06/04 02:40:49;;;;;;;5.23;4.73;;;9.80;99.90;;;;;;4999228;28;20555;-63
2023/06/04 02:43:17;;;;;;;5.07;4.63;;;9.80;99.90;;;;;;5000621;28;20493;-63
2023/06/04 02:45:45;;;;;;;4.43;4.03;;;9.80;99.90;;;;;;5000337;28;20499;-66
2023/06/04 02:48:15;;;;;;;5.60;5.10;;;9.70;99.90;;;;;;4999432;28;20472;-63
2023/06/04 02:50:43;;;;;;;5.10;4.60;;;9.60;99.90;;;;;;4993754;28;20499;-63
2023/06/04 02:53:11;;;;;;;6.03;5.23;;;9.60;99.90;;;;;;4993281;28;21091;-65
2023/06/04 02:55:41;;;;;;;4.87;4.43;;;9.60;99.90;;;;;;4993811;28;21053;-64
2023/06/04 02:58:09;;;;;;;5.70;5.03;;;9.50;99.90;;;;;;4995441;28;20496;-64
2023/06/04 03:00:37;;;;;;;5.23;4.83;;;9.50;99.90;;;;;;4996406;28;20547;-63
2023/06/04 03:03:05;;;;;;;5.17;4.67;;;9.50;99.90;;;;;;4994744;28;20500;-64
2023/06/04 03:05:36;;;;;;;4.80;4.40;;;9.40;99.90;;;;;;4996117;28;20477;-64
2023/06/04 03:08:05;;;;;;;5.07;4.57;;;9.40;99.90;;;;;;4996687;28;20476;-63
2023/06/04 03:10:33;;;;;;;4.73;4.33;;;9.40;99.90;;;;;;4986405;28;20820;-65
2023/06/04 03:13:01;;;;;;;5.30;4.80;;;9.40;99.90;;;;;;4994869;28;20496;-64
2023/06/04 03:15:29;;;;;;;4.90;4.50;;;9.40;99.90;;;;;;4994616;28;20927;-64
2023/06/04 03:17:57;;;;;;;5.20;4.70;;;9.40;99.90;;;;;;5001212;28;20787;-64
2023/06/04 03:20:26;;;;;;;4.47;4.07;;;9.30;99.90;;;;;;5000819;28;20501;-64
2023/06/04 03:22:55;;;;;;;5.00;4.60;;;9.30;99.90;;;;;;4997326;28;21334;-64
2023/06/04 03:25:23;;;;;;;4.60;4.20;;;9.30;99.90;;;;;;4998457;28;20504;-63
2023/06/04 03:27:51;;;;;;;5.10;4.63;;;9.30;99.90;;;;;;4997178;28;20576;-63
2023/06/04 03:30:19;;;;;;;5.17;4.53;;;9.40;99.90;;;;;;4996901;28;21049;-63
2023/06/04 03:32:47;;;;;;;4.47;3.90;;;9.40;99.90;;;;;;4998422;28;21132;-63
2023/06/04 03:35:15;;;;;;;4.87;4.47;;;9.40;99.90;;;;;;5000537;28;20535;-63
2023/06/04 03:37:43;;;;;;;4.70;4.30;;;9.40;99.90;;;;;;4999972;28;20468;-63
2023/06/04 03:40:16;;;;;;;4.70;4.30;;;9.40;99.90;;;;;;4992844;28;20482;-64
2023/06/04 03:42:44;;;;;;;4.57;4.17;;;9.30;99.90;;;;;;4996292;28;20581;-63
2023/06/04 03:45:12;;;;;;;5.33;4.87;;;9.40;99.90;;;;;;5001071;28;20503;-63
2023/06/04 03:47:40;;;;;;;5.37;4.60;;;9.40;99.90;;;;;;4998271;28;20507;-63
2023/06/04 03:50:09;;;;;;;7.33;5.10;;;9.50;99.90;;;;;;5000334;28;20484;-63
2023/06/04 03:52:37;;;;;;;4.60;4.20;;;9.50;99.90;;;;;;4997048;28;20497;-63
2023/06/04 03:55:06;;;;;;;4.40;4.10;;;9.40;99.90;;;;;;4997466;28;20566;-63
2023/06/04 03:57:35;;;;;;;4.87;4.23;;;9.40;99.90;;;;;;4997224;28;20479;-63
2023/06/04 04:00:04;;;;;;;4.73;4.33;;;9.40;99.90;;;;;;5009859;28;20472;-63
2023/06/04 04:02:33;;;;;;;4.63;4.23;;;9.40;99.90;;;;;;5018951;28;20488;-64
2023/06/04 04:05:02;;;;;;;5.33;4.40;;;9.40;99.90;;;;;;5001534;28;20487;-63
2023/06/04 04:07:30;;;;;;;4.50;4.10;;;9.50;99.90;;;;;;5000453;28;20587;-63
2023/06/04 04:09:58;;;;;;;11.50;4.80;;;9.50;99.90;;;;;;4998628;28;20555;-63
2023/06/04 04:12:26;;;;;;;5.00;4.60;;;9.50;99.90;;;;;;4995290;28;20920;-63
2023/06/04 04:14:56;;;;;;;5.10;4.70;;;9.50;99.90;;;;;;4998405;28;20521;-63
2023/06/04 04:17:24;;;;;;;4.73;4.33;;;9.60;99.90;;;;;;4996709;28;20469;-64
2023/06/04 04:19:52;;;;;;;6.80;5.10;;;9.70;99.90;;;;;;4998956;28;20884;-63
2023/06/04 04:22:20;;;;;;;6.13;4.60;;;9.70;99.90;;;;;;4997383;28;21038;-63
2023/06/04 04:24:48;;;;;;;4.80;4.03;;;9.80;99.90;;;;;;4998494;28;20501;-63
2023/06/04 04:27:16;;;;;;;4.77;4.37;;;9.80;99.90;;;;;;4999783;28;20773;-63
2023/06/04 04:29:47;;;;;;;4.57;4.17;;;9.80;99.90;;;;;;4998592;28;20846;-64
2023/06/04 04:32:18;;;;;;;4.27;3.80;;;9.80;99.90;;;;;;4994053;28;20523;-63
2023/06/04 04:34:54;;;;;;;4.07;3.67;;;9.90;99.90;;;;;;5000371;28;21165;-63
2023/06/04 04:37:22;;;;;;;7.30;3.63;;;9.90;99.90;;;;;;5000043;28;20467;-63
2023/06/04 04:39:52;;;;;;;4.07;3.60;;;10.00;99.90;;;;;;4997620;28;20997;-63
2023/06/04 04:42:20;;;;;;;4.50;3.47;;;10.00;99.90;;;;;;4995176;28;20591;-63
2023/06/04 04:44:50;;;;;;;3.93;3.53;;;10.00;99.90;;;;;;5000167;28;20465;-63
2023/06/04 04:47:19;;;;;;;4.80;3.33;;;10.00;99.90;;;;;;5000333;28;20490;-64
2023/06/04 04:49:49;;;;;;;3.50;3.20;;;10.10;99.90;;;;;;5000654;28;20586;-64
2023/06/04 04:52:17;;;;;;;4.50;3.40;;;10.10;99.90;;;;;;4999645;28;20500;-64
2023/06/04 04:54:45;;;;;;;4.20;3.80;;;10.20;99.90;;;;;;5001712;28;21068;-64
2023/06/04 04:57:13;;;;;;;4.93;3.70;;;10.20;99.90;;;;;;4999652;28;20563;-64
2023/06/04 04:59:41;;;;;;;6.80;4.47;;;10.30;99.90;;;;;;4998391;28;20484;-64
2023/06/04 05:02:09;;;;;;;4.57;4.07;;;10.30;99.90;;;;;;4996318;28;20492;-64
2023/06/04 05:04:39;;;;;;;4.43;4.03;;;10.40;99.90;;;;;;5001528;28;20492;-64
2023/06/04 05:07:07;;;;;;;4.00;3.60;;;10.50;99.90;;;;;;4999665;28;20480;-64
2023/06/04 05:09:35;;;;;;;4.37;3.43;;;10.50;99.90;;;;;;4998842;28;20464;-64
2023/06/04 05:12:03;;;;;;;4.10;3.80;;;10.60;99.90;;;;;;4998397;28;20507;-64
2023/06/04 05:14:31;;;;;;;4.43;3.77;;;10.70;99.90;;;;;;4998303;28;20492;-64
2023/06/04 05:16:59;;;;;;;7.17;3.90;;;10.70;99.90;;;;;;5002244;28;20531;-64
2023/06/04 05:19:27;;;;;;;7.20;4.10;;;10.80;99.90;;;;;;4997219;28;20559;-64
2023/06/04 05:22:00;;;;;;;7.00;3.90;;;10.90;99.90;;;;;;5000578;28;20472;-64
2023/06/04 05:24:28;;;;;;;7.10;4.50;;;11.00;99.90;;;;;;4999461;28;20563;-64
2023/06/04 05:26:57;;;;;;;3.77;3.30;;;11.00;99.90;;;;;;4994758;28;20822;-64
2023/06/04 05:29:25;;;;;;;3.80;3.20;;;11.10;99.90;;;;;;4996582;28;20469;-64
2023/06/04 05:31:53;;;;;;;3.03;2.73;;;11.20;99.90;;;;;;4994347;28;20500;-65
2023/06/04 05:34:21;;;;;;;5.10;3.30;;;11.30;99.90;;;;;;5001766;28;20483;-64
2023/06/04 05:36:49;;;;;;;5.07;3.20;;;11.30;99.90;;;;;;4996508;28;20515;-64
2023/06/04 05:39:18;;;;;;;3.20;2.80;;;11.30;99.90;;;;;;4995743;28;21053;-64
2023/06/04 05:41:46;;;;;;;5.77;3.80;;;11.40;99.90;;;;;;4996671;28;20489;-64
2023/06/04 05:44:15;;;;;;;4.90;3.70;;;11.50;99.90;;;;;;4995938;28;20563;-64
2023/06/04 05:46:43;;;;;;;4.27;3.37;;;11.50;99.90;;;;;;4996075;28;21500;-64
2023/06/04 05:49:11;;;;;;;5.00;3.13;;;11.60;99.90;;;;;;4993382;28;20580;-64
2023/06/04 05:51:39;;;;;;;5.50;3.10;;;11.70;99.90;;;;;;4995035;28;20622;-64
2023/06/04 05:54:06;;;;;;;6.63;3.50;;;11.70;99.90;;;;;;4990724;28;20998;-64
2023/06/04 05:56:36;;;;;;;3.13;2.77;;;11.80;99.90;;;;;;4992087;28;20481;-64
2023/06/04 05:59:04;;;;;;;5.10;3.10;;;11.80;99.90;;;;;;4987527;28;20498;-64
2023/06/04 06:01:32;;;;;;;5.77;2.87;;;12.00;99.90;;;;;;4995111;28;20524;-65
2023/06/04 06:04:00;;;;;;;4.77;3.53;;;12.00;99.90;;;;;;4985816;28;20472;-64
2023/06/04 06:06:28;;;;;;;5.73;2.80;;;12.10;99.90;;;;;;4994951;28;21263;-64
2023/06/04 06:08:57;;;;;;;4.13;2.97;;;12.20;99.90;;;;;;4988326;28;20495;-64
2023/06/04 06:11:26;;;;;;;3.87;2.70;;;12.30;99.90;;;;;;4992008;28;20575;-64
2023/06/04 06:13:56;;;;;;;3.33;3.00;;;12.40;99.90;;;;;;4994212;28;20549;-64
2023/06/04 06:16:24;;;;;;;4.07;2.50;;;12.50;99.90;;;;;;4994172;28;20571;-64
2023/06/04 06:18:52;;;;;;;3.60;3.00;;;12.50;99.90;;;;;;4998029;28;20851;-64
2023/06/04 06:21:21;;;;;;;6.30;3.00;;;12.60;99.90;;;;;;5001204;28;20486;-64
2023/06/04 06:23:49;;;;;;;3.03;2.73;;;12.70;99.90;;;;;;4997508;28;20520;-64
2023/06/04 06:26:17;;;;;;;4.53;2.80;;;12.80;99.90;;;;;;4995317;28;20920;-64
2023/06/04 06:28:47;;;;;;;8.10;3.40;;;12.80;99.90;;;;;;4994094;28;20494;-64
2023/06/04 06:31:17;;;;;;;2.87;2.60;;;12.90;99.90;;;;;;4999641;28;20922;-64
2023/06/04 06:33:45;;;;;;;3.50;2.97;;;13.00;99.90;;;;;;5007232;28;20491;-65
2023/06/04 06:36:13;;;;;;;3.03;2.50;;;13.10;99.90;;;;;;5013042;28;20711;-64
2023/06/04 06:38:41;;;;;;;3.70;2.50;;;13.10;99.90;;;;;;5003449;28;20479;-64
2023/06/04 06:41:09;;;;;;;7.17;2.80;;;13.20;99.90;;;;;;4994337;28;20596;-64
2023/06/04 06:43:37;;;;;;;3.67;2.63;;;13.30;99.90;;;;;;4998030;28;20571;-64
2023/06/04 06:46:07;;;;;;;3.20;2.90;;;13.40;99.90;;;;;;4997104;28;20527;-64
2023/06/04 06:48:37;;;;;;;7.23;2.60;;;13.40;99.90;;;;;;4995906;28;20474;-64
2023/06/04 06:51:05;;;;;;;3.37;2.53;;;13.50;99.90;;;;;;4997478;28;21147;-64
2023/06/04 06:53:33;;;;;;;4.30;3.07;;;13.50;99.90;;;;;;4995953;28;20504;-64
2023/06/04 06:56:01;;;;;;;3.90;2.90;;;13.60;99.90;;;;;;4997615;28;20998;-64
2023/06/04 06:58:29;;;;;;;4.17;2.90;;;13.70;99.90;;;;;;4990002;28;20469;-64
2023/06/04 07:00:57;;;;;;;4.20;3.17;;;13.80;99.90;;;;;;4992407;28;23043;-64
2023/06/04 07:03:25;;;;;;;4.90;3.00;;;13.80;99.90;;;;;;4986521;28;20504;-64
2023/06/04 07:05:55;;;;;;;3.73;2.60;;;13.90;99.90;;;;;;4975551;28;21768;-64
2023/06/04 07:08:23;;;;;;;3.77;2.60;;;14.00;99.90;;;;;;4997075;28;21442;-65
2023/06/04 07:10:51;;;;;;;3.97;3.00;;;14.20;99.90;;;;;;4993751;28;20558;-65
2023/06/04 07:13:19;;;;;;;5.87;2.67;;;14.20;99.90;;;;;;4994303;28;20503;-65
2023/06/04 07:15:47;;;;;;;3.97;2.87;;;14.30;99.90;;;;;;4993649;28;20534;-65
2023/06/04 07:18:15;;;;;;;5.17;2.90;;;14.40;99.90;;;;;;4992116;28;20560;-65
2023/06/04 07:20:43;;;;;;;3.80;2.10;;;14.40;99.90;;;;;;4987351;28;20490;-64
2023/06/04 07:23:12;;;;;;;2.70;2.37;;;14.40;99.90;;;;;;4987534;28;20598;-64
2023/06/04 07:25:40;;;;;;;3.10;2.37;;;14.50;99.90;;;;;;4992093;28;20497;-67
2023/06/04 07:28:08;;;;;;;3.80;3.10;;;14.50;99.90;;;;;;4986342;28;20583;-68
2023/06/04 07:30:36;;;;;;;4.73;2.77;;;14.60;99.90;;;;;;4994753;28;20675;-63
2023/06/04 07:33:06;;;;;;;3.87;2.27;;;14.80;99.90;;;;;;4992626;28;20500;-64
2023/06/04 07:35:34;;;;;;;4.20;3.00;;;14.90;99.90;;;;;;4993208;28;20520;-64
2023/06/04 07:38:02;;;;;;;3.43;2.70;;;15.00;99.90;;;;;;4995213;28;20479;-64
2023/06/04 07:40:31;;;;;;;2.50;2.30;;;15.00;99.90;;;;;;4990539;28;20496;-64
2023/06/04 07:42:59;;;;;;;2.70;2.00;;;15.10;99.90;;;;;;4990782;28;20587;-63
2023/06/04 07:45:29;;;;;;;4.30;2.30;;;15.20;99.90;;;;;;4975143;28;20947;-63
2023/06/04 07:47:59;;;;;;;5.07;2.43;;;15.20;99.90;;;;;;4975407;28;20494;-63
2023/06/04 07:50:27;;;;;;;2.90;2.10;;;15.30;99.90;;;;;;4976806;28;20465;-63
2023/06/04 07:52:55;;;;;;;2.83;2.03;;;15.40;99.90;;;;;;4975961;28;21083;-65
2023/06/04 07:55:23;;;;;;;3.43;2.47;;;15.50;99.90;;;;;;4994392;28;20538;-64
2023/06/04 07:57:53;;;;;;;4.20;2.43;;;15.60;99.90;;;;;;4986940;28;20604;-65
2023/06/04 08:00:21;;;;;;;2.60;1.93;;;15.70;99.90;;;;;;4989140;28;20480;-65
2023/06/04 08:02:50;;;;;;;3.40;1.97;;;15.80;99.90;;;;;;4977947;28;20517;-70
2023/06/04 08:05:18;;;;;;;3.20;2.20;;;15.90;99.90;;;;;;4993018;28;20475;-65
2023/06/04 08:07:47;;;;;;;1.90;1.70;;;16.00;99.90;;;;;;4992376;28;20523;-64
2023/06/04 08:10:15;;;;;;;3.17;2.20;;;16.00;99.90;;;;;;5000847;28;20974;-64
2023/06/04 08:12:43;;;;;;;3.13;2.10;;;16.00;99.90;;;;;;4999454;28;20588;-65
2023/06/04 08:15:12;;;;;;;2.37;2.10;;;16.10;99.90;;;;;;4987230;28;20531;-65
2023/06/04 08:17:40;;;;;;;2.47;1.90;;;16.20;99.90;;;;;;4994703;28;20483;-65
2023/06/04 08:20:09;;;;;;;5.20;2.40;;;16.20;99.90;;;;;;4994052;28;20498;-65
2023/06/04 08:22:37;;;;;;;3.37;1.53;;;16.20;99.90;;;;;;4998194;28;20496;-65
2023/06/04 08:25:06;;;;;;;2.37;1.90;;;16.30;99.90;;;;;;4993352;28;20503;-65
2023/06/04 08:27:34;;;;;;;2.20;2.00;;;16.40;99.90;;;;;;4997395;28;20907;-65
2023/06/04 08:30:02;;;;;;;2.20;2.00;;;16.50;99.90;;;;;;4994012;28;20551;-65
2023/06/04 08:32:32;;;;;;;3.00;2.00;;;16.60;99.90;;;;;;4995076;28;20499;-64
2023/06/04 08:35:00;;;;;;;1.93;1.73;;;16.70;99.90;;;;;;4993636;28;20480;-64
2023/06/04 08:37:28;;;;;;;8.43;2.10;;;16.80;99.90;;;;;;4999249;28;20469;-65
2023/06/04 08:39:56;;;;;;;2.03;1.83;;;16.80;99.90;;;;;;4988606;28;20473;-64
2023/06/04 08:42:32;;;;;;;3.53;1.60;;;16.80;99.90;;;;;;4982202;28;20524;-67
2023/06/04 08:45:00;;;;;;;4.03;1.80;;;16.80;99.90;;;;;;4993405;28;20547;-67
2023/06/04 08:47:35;;;;;;;2.67;1.80;;;16.90;99.90;;;;;;4991271;28;20460;-67
2023/06/04 08:50:07;;;;;;;2.13;1.70;;;16.90;99.90;;;;;;4981319;28;20913;-67
2023/06/04 08:52:35;;;;;;;1.43;1.33;;;16.90;99.90;;;;;;4994104;28;20518;-66
2023/06/04 08:55:04;;;;;;;2.60;1.67;;;17.00;99.90;;;;;;4994039;28;20572;-64
2023/06/04 08:57:32;;;;;;;3.90;2.07;;;17.10;99.90;;;;;;4996601;28;20506;-65
2023/06/04 09:00:00;;;;;;;2.30;1.80;;;17.30;99.90;;;;;;4991813;28;20469;-64
2023/06/04 09:02:29;;;;;;;2.63;2.07;;;17.40;99.90;;;;;;4988105;28;20500;-65
2023/06/04 09:05:02;;;;;;;1.97;1.30;;;17.50;99.90;;;;;;4999611;28;20464;-64
2023/06/04 09:07:31;;;;;;;2.90;1.77;;;17.60;99.90;;;;;;4986099;28;20514;-65
2023/06/04 09:10:00;;;;;;;2.10;1.60;;;17.70;99.90;;;;;;4992363;28;20504;-65
2023/06/04 09:12:44;;;;;;;1.90;1.43;;;17.80;99.90;;;;;;5002139;28;20500;-65
2023/06/04 09:15:12;;;;;;;2.50;1.83;;;17.80;99.90;;;;;;4990880;28;21018;-65
2023/06/04 09:17:40;;;;;;;3.90;2.13;;;17.80;99.90;;;;;;4989168;28;20911;-65
2023/06/04 09:20:19;;;;;;;1.80;1.63;;;17.90;99.90;;;;;;4987074;28;20498;-65
2023/06/04 09:22:47;;;;;;;2.83;1.53;;;18.00;99.90;;;;;;4982359;28;20500;-65
2023/06/04 09:25:22;;;;;;;3.40;1.50;;;18.10;99.90;;;;;;4970127;28;20468;-65
2023/06/04 09:27:50;;;;;;;1.53;1.33;;;18.10;99.90;;;;;;4980486;28;20464;-65
2023/06/04 09:30:18;;;;;;;2.00;1.60;;;18.10;99.90;;;;;;4982231;28;20602;-65
2023/06/04 09:32:46;;;;;;;1.40;1.30;;;18.10;99.90;;;;;;4982215;28;20499;-65
2023/06/04 09:35:17;;;;;;;2.03;1.83;;;18.30;96.10;;;;;;4995046;28;20477;-64
2023/06/04 09:37:53;;;;;;;1.50;1.40;;;18.40;91.70;;;;;;4987105;28;20584;-65
2023/06/04 09:40:22;;;;;;;1.47;1.33;;;18.50;95.10;;;;;;4988872;28;20510;-65
2023/06/04 09:42:54;;;;;;;2.20;1.67;;;18.40;89.10;;;;;;4986222;28;21018;-65
2023/06/04 09:45:29;;;;;;;2.03;1.50;;;18.40;93.20;;;;;;4981476;28;21070;-65
2023/06/04 09:47:57;;;;;;;1.80;1.10;;;18.50;94.30;;;;;;4989811;28;21003;-65
2023/06/04 09:50:32;;;;;;;1.50;1.40;;;18.60;93.80;;;;;;4981222;28;20577;-65
2023/06/04 09:53:00;;;;;;;1.37;1.27;;;18.70;94.70;;;;;;4981772;28;20495;-65
2023/06/04 09:55:28;;;;;;;2.27;2.07;;;18.90;94.20;;;;;;4985151;28;20567;-65
2023/06/04 09:57:57;;;;;;;1.50;1.40;;;19.00;92.90;;;;;;4989843;28;20512;-65
2023/06/04 10:00:26;;;;;;;2.30;1.70;;;19.00;94.30;;;;;;4991550;28;20476;-66
2023/06/04 10:02:59;;;;;;;2.30;1.30;;;19.10;92.70;;;;;;4988109;28;20505;-66
2023/06/04 10:05:33;;;;;;;2.20;2.00;;;19.10;91.60;;;;;;4994727;28;20851;-65
2023/06/04 10:08:04;;;;;;;2.13;1.47;;;18.90;82.80;;;;;;4982518;28;20589;-65
2023/06/04 10:10:36;;;;;;;2.70;1.97;;;18.80;87.10;;;;;;4983723;28;20912;-65
2023/06/04 10:13:10;;;;;;;1.90;1.80;;;18.80;92.10;;;;;;4986980;28;20484;-65
2023/06/04 10:15:38;;;;;;;2.90;1.50;;;18.90;94.20;;;;;;4991585;28;20544;-66
2023/06/04 10:18:07;;;;;;;3.27;1.70;;;19.10;92.40;;;;;;4982411;28;20496;-65
2023/06/04 10:20:37;;;;;;;2.23;1.83;;;19.10;85.30;;;;;;4987874;28;20472;-65
2023/06/04 10:23:05;;;;;;;1.90;1.60;;;19.20;85.80;;;;;;4980947;28;20499;-64
2023/06/04 10:25:33;;;;;;;3.03;2.10;;;19.30;77.10;;;;;;4986162;28;20465;-63
2023/06/04 10:28:02;;;;;;;1.70;1.60;;;19.50;82.00;;;;;;4987865;28;20950;-64
2023/06/04 10:30:31;;;;;;;2.50;1.63;;;19.40;78.70;;;;;;4977424;28;20480;-66
2023/06/04 10:32:59;;;;;;;2.00;1.80;;;19.50;86.80;;;;;;4982442;28;21266;-67
2023/06/04 10:35:32;;;;;;;2.10;1.83;;;19.50;87.60;;;;;;4989587;28;20548;-64
2023/06/04 10:38:13;;;;;;;2.07;1.80;;;19.60;86.20;;;;;;4990698;28;20496;-64
2023/06/04 10:40:41;;;;;;;2.53;1.50;;;19.60;87.10;;;;;;4986655;28;20509;-64
2023/06/04 10:43:10;;;;;;;3.30;1.90;;;19.70;83.20;;;;;;4987108;28;20918;-64
2023/06/04 10:45:39;;;;;;;4.23;1.90;;;19.90;94.20;;;;;;4978565;28;20569;-63
2023/06/04 10:48:09;;;;;;;3.30;1.80;;;20.00;79.30;;;;;;4994294;28;20480;-64
2023/06/04 10:50:49;;;;;;;2.50;1.70;;;20.00;74.90;;;;;;4987417;28;20469;-64
2023/06/04 10:53:20;;;;;;;1.87;1.67;;;20.00;77.80;;;;;;4986770;28;20496;-65
2023/06/04 10:55:49;;;;;;;1.60;1.50;;;20.10;80.30;;;;;;4988951;28;20572;-64
2023/06/04 10:58:17;;;;;;;2.03;1.83;;;20.00;76.50;;;;;;4984690;28;21159;-64
2023/06/04 11:00:48;;;;;;;2.30;1.50;;;20.10;86.50;;;;;;4984617;28;20556;-64
2023/06/04 11:03:17;;;;;;;1.53;1.43;;;20.30;87.80;;;;;;4985144;28;20882;-65
2023/06/04 11:05:47;;;;;;;3.13;2.00;;;20.30;84.40;;;;;;4981726;28;20852;-63
2023/06/04 11:08:26;;;;;;;2.83;1.70;;;20.40;78.90;;;;;;4993486;28;20530;-64
2023/06/04 11:10:58;;;;;;;1.90;1.80;;;20.50;80.80;;;;;;4986169;28;20468;-64
2023/06/04 11:13:26;;;;;;;1.60;1.50;;;20.60;79.30;;;;;;4989247;28;20919;-64
2023/06/04 11:15:55;;;;;;;2.03;1.77;;;20.70;79.00;;;;;;4990277;28;20575;-62
2023/06/04 11:18:24;;;;;;;1.90;1.70;;;20.90;82.20;;;;;;4992190;28;20523;-63
2023/06/04 11:21:01;;;;;;;1.60;1.50;;;21.00;75.00;;;;;;4990261;28;20900;-64
2023/06/04 11:23:29;;;;;;;2.00;1.70;;;21.00;78.00;;;;;;4984751;28;26452;-64
2023/06/04 11:25:59;;;;;;;4.57;2.30;;;21.10;79.50;;;;;;4988551;28;20953;-65
2023/06/04 11:28:28;;;;;;;2.90;2.07;;;21.20;82.70;;;;;;4988128;28;21089;-64
2023/06/04 11:31:02;;;;;;;1.73;1.63;;;21.30;90.90;;;;;;4985687;28;20481;-64
2023/06/04 11:33:30;;;;;;;2.03;1.80;;;21.40;80.40;;;;;;4987818;28;20496;-64
2023/06/04 11:35:58;;;;;;;2.23;1.90;;;21.40;76.90;;;;;;4986634;28;21052;-64
2023/06/04 11:38:26;;;;;;;2.50;1.83;;;21.50;71.60;;;;;;4995956;28;20547;-64
2023/06/04 11:41:00;;;;;;;2.53;1.70;;;21.50;73.60;;;;;;4994288;28;20562;-63
2023/06/04 11:43:28;;;;;;;2.10;1.67;;;21.60;70.00;;;;;;4988687;28;21095;-64
2023/06/04 11:45:57;;;;;;;2.83;1.63;;;21.70;76.30;;;;;;4995978;28;20504;-65
2023/06/04 11:48:25;;;;;;;2.30;1.83;;;21.70;73.30;;;;;;5013594;28;20476;-62
2023/06/04 11:50:54;;;;;;;2.60;1.67;;;21.80;70.80;;;;;;4998851;28;20859;-64
2023/06/04 11:53:23;;;;;;;2.20;1.60;;;21.90;71.00;;;;;;4995216;28;21039;-64
2023/06/04 11:55:51;;;;;;;2.30;1.90;;;22.00;63.20;;;;;;4991696;28;20507;-63
2023/06/04 11:58:21;;;;;;;1.70;1.60;;;22.00;68.50;;;;;;4993798;28;20492;-64
2023/06/04 12:00:49;;;;;;;1.63;1.53;;;22.10;68.00;;;;;;4985591;28;20559;-63
2023/06/04 12:03:17;;;;;;;1.77;1.47;;;22.20;62.80;;;;;;4978198;28;20507;-63
2023/06/04 12:05:45;;;;;;;1.73;1.60;;;22.30;63.50;;;;;;4983113;28;21261;-64
2023/06/04 12:08:13;;;;;;;2.20;1.90;;;22.40;68.00;;;;;;4976632;28;20593;-64
2023/06/04 12:10:42;;;;;;;1.70;1.60;;;22.60;67.70;;;;;;4984015;28;20563;-63
2023/06/04 12:13:11;;;;;;;2.77;1.90;;;22.70;60.10;;;;;;4983428;28;20607;-63
2023/06/04 12:15:40;;;;;;;2.20;1.77;;;22.70;67.90;;;;;;4990185;28;20464;-64
2023/06/04 12:18:09;;;;;;;3.10;2.10;;;22.80;59.40;;;;;;4990380;28;20538;-65
2023/06/04 12:20:38;;;;;;;1.80;1.70;;;23.00;66.40;;;;;;4989216;28;20997;-65
2023/06/04 12:23:07;;;;;;;3.70;2.03;;;23.10;65.10;;;;;;4991233;28;20529;-65
2023/06/04 12:25:37;;;;;;;1.53;1.43;;;23.20;59.00;;;;;;4984161;28;21041;-64
2023/06/04 12:28:06;;;;;;;1.80;1.70;;;23.30;61.40;;;;;;4988838;28;21909;-64
2023/06/04 12:30:37;;;;;;;2.57;1.60;;;23.50;58.30;;;;;;4984708;28;20473;-64
2023/06/04 12:33:06;;;;;;;1.70;1.50;;;23.60;58.80;;;;;;4986884;28;20559;-64
2023/06/04 12:35:35;;;;;;;1.47;1.37;;;23.50;51.50;;;;;;4983216;28;20866;-65
2023/06/04 12:38:04;;;;;;;1.60;1.50;;;23.30;50.10;;;;;;4984743;28;20520;-61
2023/06/04 12:40:32;;;;;;;1.70;1.60;;;23.40;53.50;;;;;;4985030;28;20547;-62
2023/06/04 12:43:00;;;;;;;2.33;1.37;;;23.60;54.80;;;;;;4977492;28;21046;-63
2023/06/04 12:45:28;;;;;;;2.43;1.50;;;23.70;53.20;;;;;;4983349;28;20569;-65
2023/06/04 12:47:56;;;;;;;3.10;1.63;;;23.80;56.70;;;;;;4986678;28;20944;-65
2023/06/04 12:50:26;;;;;;;2.90;1.77;;;24.10;53.90;;;;;;4993814;28;20472;-64
2023/06/04 12:52:54;;;;;;;1.50;1.40;;;24.10;52.60;;;;;;4987450;28;20495;-64
2023/06/04 12:55:23;;;;;;;2.50;1.30;;;24.10;51.50;;;;;;4987427;28;20511;-64
2023/06/04 12:57:55;;;;;;;1.70;1.57;;;24.20;51.30;;;;;;4988174;28;20514;-64